Cavalier, ND

7:41 AM CST on February 08, 2016 (GMT -0600)
Cavalier | | Change Station
CLOSE
Current Station
Airport
Location: Cavalier,
Elevation: 892 ft
Nearby Weather Stations
Active Advisory: Winter Weather Advisory

Elev 892 ft 48.78 °N, 97.63 °W | Updated 26 minutes ago

Overcast
Overcast
14 °F
Feels Like -4 °F
N
21
Wind Variable Wind from North
Gusts 31 mph

Today
High -- | Low -- °F
--% Chance of Precip.
Yesterday
High -- | Low -- °F
Precip. -- in
Pressure 30.17 in
Visibility 10.0 miles
Clouds Few 1400 ft
Overcast 2500 ft
Windchill -4 °F
Dew Point 9 °F
Humidity 79%
Rainfall 0.05 in
Snow Depth Not available.
7:50 AM 5:39 PM
Waning Crescent, 0% visible
METAR K2C8 081315Z AUTO 36018G27KT 10SM FEW014 OVC025 M10/M13 A3017 RMK AO2
Pressure 30.17 in
Visibility 10.0 miles
Clouds Few 1400 ft
Overcast 2500 ft
Windchill -4 °F
Dew Point 9 °F
Humidity 79%
Rainfall 0.05 in
Snow Depth Not available.
7:50 AM 5:39 PM
Waning Crescent, 0% visible
METAR K2C8 081315Z AUTO 36018G27KT 10SM FEW014 OVC025 M10/M13 A3017 RMK AO2

10-Day Weather Forecast

Almanac

Astronomy

Feb. 08, 2016 Rise Set
Actual Time
Civil Twilight
Nautical Twilight
Astronomical Twilight
Moon
Length of Visible Light
Length of Day
Tomorrow will be .
, % of the Moon is Illuminated

Today's Extremes

State Highs State Lows

Community

WunderPhotos

Upload Photos

1,891,437 photos uploaded!

WunderBlog® & News

Nearby

Air Quality

  Air Quality AQ Index Pollutant
Not available.

Snow Depth

Station Depth Elevation

Earthquake Activity

City Distance Mag. Time & Date
Minimum magnitude displayed is 2.5.

Coastal Water Temperatures

Place Temperature

Stations

Nearby Weather Stations

Station Location Temp. Windchill Dew Point Humidity Wind Precip. Elev Updated Type
                   

Watches & Warnings

Winter Weather Advisory
Issued: 5:59 AM CST Feb. 8, 2016 – National Weather Service

... Winter Weather Advisory in effect until noon CST today...
... Blizzard Warning will expire at 6 am CST early this morning...

The National Weather Service in Grand Forks has issued a Winter
Weather Advisory for blowing snow... which is in effect until noon
CST today.

* Timing... light snow showers and strong winds will continue
throughout the morning hours.

* Winds / visibilities... winds gusting as high as 40 mph will
cause areas lower visibility to a mile or less with snow
showers.

* Impacts... conditions have improved slightly since last
night... but blowing snow will continue to be an issue in some
areas. Plan on slippery Road conditions.

* Winds... northwest 25 to 35 mph with gusts up to 40 mph.


Precautionary/preparedness actions...

A Winter Weather Advisory for blowing snow means that
visibilities will be limited due to strong winds blowing snow
around. Use caution when traveling... especially in open areas.